Time;durP1;ratioP1;P1;durP2;ratioP2;P2;SDS_P1;SDS_P2;PMS_P1;PMS_P2;Temp;Humidity;BMP_temperature;BMP_pressure;BME280_temperature;BME280_humidity;BME280_pressure;Samples;Min_cycle;Max_cycle;Signal;HPM_P1;HPM_P2
2022/01/02 00:00:44;;;;;;;14.87;13.37;;;;;;;;;;5098263;28;24429;-56
2022/01/02 00:03:13;;;;;;;15.90;14.20;;;;;;;;;;5100213;28;24414;-56
2022/01/02 00:05:40;;;;;;;15.75;14.25;;;;;;;;;;5100616;28;24759;-55
2022/01/02 00:08:11;;;;;;;15.13;13.63;;;;;;;;;;5104611;28;24812;-55
2022/01/02 00:10:43;;;;;;;15.38;13.88;;;;;;;;;;5103990;28;24788;-56
2022/01/02 00:13:12;;;;;;;14.50;13.00;;;;;;;;;;5101553;28;24495;-56
2022/01/02 00:15:37;;;;;;;14.35;12.70;;;;;;;;;;5098405;28;24532;-56
2022/01/02 00:18:09;;;;;;;14.00;12.50;;;;;;;;;;5104191;28;24448;-56
2022/01/02 00:20:44;;;;;;;13.43;12.07;;;;;;;;;;5103719;28;24393;-57
2022/01/02 00:23:16;;;;;;;13.32;11.98;;;;;;;;;;5103733;28;24494;-56
2022/01/02 00:25:42;;;;;;;13.32;11.75;;;;;;;;;;5103736;28;24427;-57
2022/01/02 00:28:07;;;;;;;13.13;11.73;;;;;;;;;;5099399;28;24949;-56
2022/01/02 00:30:33;;;;;;;13.00;11.67;;;;;;;;;;5099993;28;24565;-57
2022/01/02 00:32:59;;;;;;;12.27;11.00;;;;;;;;;;5101133;28;24421;-55
2022/01/02 00:35:24;;;;;;;12.75;11.40;;;;;;;;;;5104164;28;25219;-56
2022/01/02 00:37:49;;;;;;;11.40;9.80;;;;;;;;;;5099976;28;24992;-56
2022/01/02 00:40:15;;;;;;;12.10;10.90;;;;;;;;;;5100104;28;24413;-57
2022/01/02 00:42:42;;;;;;;12.93;11.63;;;;;;;;;;5101907;28;24394;-56
2022/01/02 00:45:08;;;;;;;11.73;9.95;;;;;;;;;;5103368;28;24474;-56
2022/01/02 00:47:33;;;;;;;12.02;10.60;;;;;;;;;;5103119;28;24964;-56
2022/01/02 00:50:06;;;;;;;11.60;10.37;;;;;;;;;;5101787;28;24457;-56
2022/01/02 00:52:34;;;;;;;10.70;9.60;;;;;;;;;;5098220;28;24752;-56
2022/01/02 00:55:01;;;;;;;10.50;9.40;;;;;;;;;;5101991;28;24454;-56
2022/01/02 00:57:33;;;;;;;11.93;9.68;;;;;;;;;;5102896;28;24514;-56
2022/01/02 01:00:04;;;;;;;10.63;9.52;;;;;;;;;;5101221;28;24408;-56
2022/01/02 01:02:33;;;;;;;10.30;9.30;;;;;;;;;;5100997;28;24390;-55
2022/01/02 01:05:00;;;;;;;10.10;9.20;;;;;;;;;;5097631;28;24490;-56
2022/01/02 01:07:27;;;;;;;9.07;8.00;;;;;;;;;;5099623;28;24425;-56
2022/01/02 01:09:53;;;;;;;10.33;9.33;;;;;;;;;;5100898;28;24490;-56
2022/01/02 01:12:19;;;;;;;9.82;8.60;;;;;;;;;;5102707;28;25000;-56
2022/01/02 01:14:46;;;;;;;10.97;9.13;;;;;;;;;;5101168;28;24604;-56
2022/01/02 01:17:13;;;;;;;9.68;8.77;;;;;;;;;;5096739;28;24970;-55
2022/01/02 01:19:39;;;;;;;9.55;8.55;;;;;;;;;;5097507;28;24941;-56
2022/01/02 01:22:04;;;;;;;9.82;8.65;;;;;;;;;;5100632;28;24496;-57
2022/01/02 01:24:30;;;;;;;11.37;8.33;;;;;;;;;;5103157;28;24756;-55
2022/01/02 01:26:56;;;;;;;9.10;8.20;;;;;;;;;;5101039;28;24942;-56
2022/01/02 01:29:21;;;;;;;9.77;8.73;;;;;;;;;;5101000;28;24535;-56
2022/01/02 01:31:46;;;;;;;11.02;8.45;;;;;;;;;;5097318;28;24453;-55
2022/01/02 01:34:12;;;;;;;9.80;8.50;;;;;;;;;;5097277;28;24390;-56
2022/01/02 01:36:37;;;;;;;9.60;8.60;;;;;;;;;;5098463;28;25052;-56
2022/01/02 01:39:02;;;;;;;8.98;8.07;;;;;;;;;;5104459;28;24946;-56
2022/01/02 01:41:38;;;;;;;9.25;8.27;;;;;;;;;;5106628;28;24818;-56
2022/01/02 01:44:38;;;;;;;9.98;8.98;;;;;;;;;;5107058;28;24501;-55
2022/01/02 01:46:55;;;;;;;10.15;8.25;;;;;;;;;;5099473;28;24471;-55
2022/01/02 01:49:22;;;;;;;10.00;9.00;;;;;;;;;;5099762;28;24440;-55
2022/01/02 01:51:47;;;;;;;9.60;8.70;;;;;;;;;;5106645;28;24473;-56
2022/01/02 01:54:12;;;;;;;10.50;8.60;;;;;;;;;;5106818;28;24516;-55
2022/01/02 01:56:38;;;;;;;8.87;7.97;;;;;;;;;;5106550;28;24454;-56
2022/01/02 01:59:04;;;;;;;9.03;8.13;;;;;;;;;;5105015;28;24986;-55
2022/01/02 02:01:29;;;;;;;10.30;9.20;;;;;;;;;;5094149;28;24421;-55
2022/01/02 02:03:55;;;;;;;10.20;8.50;;;;;;;;;;5080072;28;24560;-56
2022/01/02 02:06:20;;;;;;;9.35;8.38;;;;;;;;;;5086078;28;25105;-56
2022/01/02 02:08:47;;;;;;;9.18;8.27;;;;;;;;;;5084479;28;24493;-56
2022/01/02 02:11:12;;;;;;;12.52;9.02;;;;;;;;;;5086207;28;24378;-56
2022/01/02 02:13:38;;;;;;;10.00;8.60;;;;;;;;;;5092479;28;24410;-56
2022/01/02 02:16:03;;;;;;;10.17;8.50;;;;;;;;;;5102957;28;24483;-55
2022/01/02 02:18:29;;;;;;;9.90;8.90;;;;;;;;;;5106293;28;24404;-57
2022/01/02 02:20:54;;;;;;;9.90;8.40;;;;;;;;;;5105072;28;24398;-57
2022/01/02 02:23:19;;;;;;;9.10;8.30;;;;;;;;;;5105840;28;25023;-56
2022/01/02 02:25:44;;;;;;;9.35;8.35;;;;;;;;;;5106072;28;24400;-56
2022/01/02 02:28:10;;;;;;;9.10;8.20;;;;;;;;;;5101150;28;24429;-55
2022/01/02 02:30:36;;;;;;;9.52;8.63;;;;;;;;;;5102308;28;24955;-56
2022/01/02 02:33:03;;;;;;;10.55;9.52;;;;;;;;;;5101499;28;24939;-55
2022/01/02 02:35:29;;;;;;;9.90;8.90;;;;;;;;;;5105638;28;24405;-55
2022/01/02 02:37:55;;;;;;;9.40;8.50;;;;;;;;;;5102330;28;24456;-55
2022/01/02 02:40:23;;;;;;;9.43;8.53;;;;;;;;;;5102439;28;24445;-56
2022/01/02 02:42:59;;;;;;;10.23;9.23;;;;;;;;;;5101878;28;24401;-55
2022/01/02 02:50:56;;;;;;;8.73;7.93;;;;;;;;;;5100218;28;24396;-56
2022/01/02 02:53:21;;;;;;;8.80;8.00;;;;;;;;;;5102970;28;24389;-56
2022/01/02 02:55:48;;;;;;;9.00;8.10;;;;;;;;;;5104636;28;24767;-55
2022/01/02 02:58:56;;;;;;;9.68;8.68;;;;;;;;;;5105805;28;24393;-57
2022/01/02 03:01:02;;;;;;;9.20;8.30;;;;;;;;;;5077855;28;24468;-56
2022/01/02 03:03:28;;;;;;;9.50;8.37;;;;;;;;;;5079408;28;24418;-56
2022/01/02 03:05:53;;;;;;;9.70;8.67;;;;;;;;;;5081138;28;25257;-56
2022/01/02 03:08:18;;;;;;;9.03;8.23;;;;;;;;;;5090619;28;24498;-56
2022/01/02 03:10:44;;;;;;;9.30;8.40;;;;;;;;;;5103267;28;24429;-56
2022/01/02 03:13:09;;;;;;;9.40;8.50;;;;;;;;;;5103099;28;25313;-57
2022/01/02 03:15:34;;;;;;;9.27;8.00;;;;;;;;;;5101898;28;24471;-57
2022/01/02 03:17:59;;;;;;;9.30;8.30;;;;;;;;;;5101278;28;24406;-55
2022/01/02 03:20:24;;;;;;;9.40;8.40;;;;;;;;;;5105297;28;24761;-55
2022/01/02 03:22:49;;;;;;;9.10;8.20;;;;;;;;;;5103140;28;24410;-58
2022/01/02 03:25:15;;;;;;;9.73;8.07;;;;;;;;;;5101295;28;25039;-57
2022/01/02 03:27:40;;;;;;;9.00;8.10;;;;;;;;;;5101440;28;25494;-57
2022/01/02 03:30:06;;;;;;;8.48;7.70;;;;;;;;;;5101330;28;24977;-57
2022/01/02 03:32:31;;;;;;;9.35;8.32;;;;;;;;;;5103286;28;24398;-57
2022/01/02 03:34:56;;;;;;;9.05;8.05;;;;;;;;;;5104629;28;24444;-57
2022/01/02 03:37:21;;;;;;;9.50;8.60;;;;;;;;;;5104960;28;24454;-57
2022/01/02 03:39:46;;;;;;;10.00;7.90;;;;;;;;;;5102875;28;24390;-57
2022/01/02 03:42:12;;;;;;;9.40;7.55;;;;;;;;;;5099525;28;24452;-57
2022/01/02 03:44:37;;;;;;;9.70;8.10;;;;;;;;;;5102359;28;24436;-56
2022/01/02 03:47:02;;;;;;;8.20;7.40;;;;;;;;;;5104461;28;24424;-57
2022/01/02 03:49:27;;;;;;;8.90;8.10;;;;;;;;;;5104971;28;24491;-57
2022/01/02 03:51:52;;;;;;;9.02;8.20;;;;;;;;;;5102526;28;24760;-57
2022/01/02 03:54:17;;;;;;;8.75;7.85;;;;;;;;;;5098931;28;24393;-57
2022/01/02 03:56:43;;;;;;;9.65;8.60;;;;;;;;;;5100582;28;24452;-57
2022/01/02 03:59:09;;;;;;;8.83;7.93;;;;;;;;;;5103962;28;24978;-56
2022/01/02 04:01:34;;;;;;;9.80;8.80;;;;;;;;;;5104001;28;24481;-58
2022/01/02 04:03:59;;;;;;;9.45;8.50;;;;;;;;;;5082252;28;24448;-57
2022/01/02 04:06:24;;;;;;;8.77;7.97;;;;;;;;;;5102126;28;24393;-57
2022/01/02 04:08:50;;;;;;;12.27;9.10;;;;;;;;;;5098782;28;24402;-57
2022/01/02 04:11:15;;;;;;;8.77;7.88;;;;;;;;;;5099959;28;24513;-57
2022/01/02 04:13:40;;;;;;;9.15;8.20;;;;;;;;;;5102139;28;24392;-57
2022/01/02 04:16:05;;;;;;;9.95;8.55;;;;;;;;;;5104476;28;24402;-57
2022/01/02 04:18:30;;;;;;;9.40;8.40;;;;;;;;;;5100697;28;24392;-57
2022/01/02 04:20:55;;;;;;;9.15;8.25;;;;;;;;;;5098120;28;24436;-56
2022/01/02 04:23:21;;;;;;;8.93;8.02;;;;;;;;;;5099917;28;24414;-56
2022/01/02 04:25:46;;;;;;;9.25;8.35;;;;;;;;;;5101563;28;24406;-57
2022/01/02 04:28:11;;;;;;;8.93;8.03;;;;;;;;;;5104163;28;24465;-57
2022/01/02 04:30:36;;;;;;;9.50;8.48;;;;;;;;;;5103525;28;24446;-57
2022/01/02 04:33:01;;;;;;;10.73;8.60;;;;;;;;;;5079575;28;24506;-57
2022/01/02 04:35:26;;;;;;;9.13;7.93;;;;;;;;;;5100320;28;24417;-57
2022/01/02 04:37:52;;;;;;;9.13;7.90;;;;;;;;;;5103405;28;24489;-57
2022/01/02 04:40:17;;;;;;;10.60;8.00;;;;;;;;;;5103735;28;24942;-57
2022/01/02 04:42:42;;;;;;;8.67;7.77;;;;;;;;;;5101971;28;24388;-56
2022/01/02 04:45:07;;;;;;;10.60;8.50;;;;;;;;;;5097092;28;24474;-56
2022/01/02 04:47:33;;;;;;;8.50;7.70;;;;;;;;;;5100057;28;24517;-57
2022/01/02 04:49:58;;;;;;;9.40;8.40;;;;;;;;;;5101481;28;24429;-58
2022/01/02 04:52:23;;;;;;;9.77;8.48;;;;;;;;;;5103529;28;24471;-57
2022/01/02 04:54:48;;;;;;;10.37;8.40;;;;;;;;;;5100990;28;24382;-57
2022/01/02 04:57:14;;;;;;;9.80;8.87;;;;;;;;;;5095748;28;24422;-58
2022/01/02 04:59:39;;;;;;;8.70;7.63;;;;;;;;;;5101637;28;24404;-57
2022/01/02 05:02:04;;;;;;;10.67;8.47;;;;;;;;;;5103537;28;24915;-58
2022/01/02 05:04:29;;;;;;;9.00;8.10;;;;;;;;;;5103007;28;24424;-56
2022/01/02 05:06:55;;;;;;;8.77;7.93;;;;;;;;;;5101294;28;24429;-56
2022/01/02 05:09:20;;;;;;;9.82;8.65;;;;;;;;;;5101134;28;24433;-56
2022/01/02 05:11:45;;;;;;;10.60;8.38;;;;;;;;;;5097231;28;24428;-56
2022/01/02 05:14:10;;;;;;;8.80;7.90;;;;;;;;;;5101158;28;24394;-56
2022/01/02 05:16:35;;;;;;;10.00;8.52;;;;;;;;;;5103355;28;24390;-57
2022/01/02 05:19:01;;;;;;;10.37;9.30;;;;;;;;;;5101632;28;24386;-57
2022/01/02 05:21:26;;;;;;;9.17;8.27;;;;;;;;;;5102685;28;25051;-56
2022/01/02 05:23:51;;;;;;;10.03;8.20;;;;;;;;;;5099533;28;24401;-57
2022/01/02 05:26:16;;;;;;;9.68;8.68;;;;;;;;;;5097477;28;24994;-56
2022/01/02 05:28:41;;;;;;;8.73;7.83;;;;;;;;;;5099268;28;24413;-57
2022/01/02 05:31:06;;;;;;;8.93;8.00;;;;;;;;;;5099463;28;24493;-57
2022/01/02 05:33:32;;;;;;;9.48;8.48;;;;;;;;;;5101179;28;24506;-57
2022/01/02 05:35:57;;;;;;;9.50;8.27;;;;;;;;;;5102670;28;24935;-56
2022/01/02 05:38:22;;;;;;;9.45;8.50;;;;;;;;;;5103083;28;24477;-56
2022/01/02 05:40:49;;;;;;;9.07;7.70;;;;;;;;;;5097483;28;24903;-56
2022/01/02 05:43:15;;;;;;;8.63;7.82;;;;;;;;;;5097231;28;24473;-56
2022/01/02 05:45:40;;;;;;;9.77;8.77;;;;;;;;;;5099213;28;24481;-56
2022/01/02 05:48:05;;;;;;;10.40;9.30;;;;;;;;;;5100684;28;24417;-57
2022/01/02 05:50:31;;;;;;;9.23;7.87;;;;;;;;;;5103309;28;24943;-56
2022/01/02 05:52:56;;;;;;;10.40;9.13;;;;;;;;;;5098648;28;24421;-56
2022/01/02 05:55:21;;;;;;;8.60;7.80;;;;;;;;;;5096900;28;24432;-57
2022/01/02 05:57:46;;;;;;;8.40;7.60;;;;;;;;;;5078487;28;24467;-56
2022/01/02 06:00:11;;;;;;;7.97;7.27;;;;;;;;;;5096973;28;24925;-56
2022/01/02 06:02:36;;;;;;;9.30;8.10;;;;;;;;;;5102173;28;24405;-57
2022/01/02 06:05:03;;;;;;;7.50;6.80;;;;;;;;;;5100882;28;24393;-56
2022/01/02 06:07:28;;;;;;;8.65;7.75;;;;;;;;;;5099117;28;24402;-57
2022/01/02 06:09:53;;;;;;;9.30;8.40;;;;;;;;;;5096945;28;24491;-58
2022/01/02 06:12:18;;;;;;;8.73;7.82;;;;;;;;;;5100576;28;24463;-57
2022/01/02 06:14:43;;;;;;;9.07;8.00;;;;;;;;;;5100562;28;24405;-58
2022/01/02 06:17:08;;;;;;;8.93;7.78;;;;;;;;;;5102505;28;24389;-57
2022/01/02 06:19:33;;;;;;;8.88;8.07;;;;;;;;;;5102463;28;24860;-58
2022/01/02 06:22:00;;;;;;;7.40;6.70;;;;;;;;;;5096385;28;24425;-57
2022/01/02 06:24:26;;;;;;;8.50;7.70;;;;;;;;;;5100120;28;24432;-57
2022/01/02 06:26:51;;;;;;;8.60;7.80;;;;;;;;;;5105322;28;24438;-57
2022/01/02 06:29:16;;;;;;;8.55;7.75;;;;;;;;;;5105484;28;24530;-57
2022/01/02 06:31:41;;;;;;;8.40;7.60;;;;;;;;;;5104539;28;24443;-57
2022/01/02 06:34:06;;;;;;;8.88;7.97;;;;;;;;;;5102242;28;24393;-56
2022/01/02 06:36:31;;;;;;;8.77;7.70;;;;;;;;;;5100413;28;24489;-56
2022/01/02 06:38:56;;;;;;;8.90;8.00;;;;;;;;;;5103672;28;24405;-56
2022/01/02 06:41:22;;;;;;;8.98;8.07;;;;;;;;;;5105651;28;24390;-56
2022/01/02 06:43:52;;;;;;;8.52;7.63;;;;;;;;;;5104239;28;24390;-56
2022/01/02 06:46:17;;;;;;;8.07;7.38;;;;;;;;;;5100170;28;24405;-55
2022/01/02 06:48:42;;;;;;;9.30;8.40;;;;;;;;;;5099930;28;24801;-55
2022/01/02 06:51:07;;;;;;;9.48;8.50;;;;;;;;;;5101476;28;24513;-56
2022/01/02 06:53:32;;;;;;;8.85;7.88;;;;;;;;;;5104243;28;24468;-56
2022/01/02 06:55:57;;;;;;;9.05;8.25;;;;;;;;;;5089957;28;24765;-57
2022/01/02 06:58:22;;;;;;;9.00;8.10;;;;;;;;;;5081412;28;24455;-56
2022/01/02 07:00:48;;;;;;;8.85;7.95;;;;;;;;;;5081874;28;24387;-56
2022/01/02 07:03:13;;;;;;;8.20;7.40;;;;;;;;;;5103208;28;24853;-56
2022/01/02 07:05:39;;;;;;;7.55;6.85;;;;;;;;;;5105399;28;24398;-56
2022/01/02 07:08:04;;;;;;;10.23;8.27;;;;;;;;;;5103583;28;24974;-56
2022/01/02 07:10:29;;;;;;;9.05;7.90;;;;;;;;;;5101793;28;24429;-57
2022/01/02 07:12:54;;;;;;;9.10;8.20;;;;;;;;;;5099513;28;24526;-56
2022/01/02 07:15:19;;;;;;;10.23;9.23;;;;;;;;;;5103191;28;24406;-56
2022/01/02 07:17:44;;;;;;;11.65;10.00;;;;;;;;;;5103186;28;24960;-57
2022/01/02 07:20:10;;;;;;;9.17;8.27;;;;;;;;;;5105353;28;24802;-56
2022/01/02 07:22:36;;;;;;;10.43;9.43;;;;;;;;;;5104807;28;24394;-56
2022/01/02 07:25:01;;;;;;;10.50;9.40;;;;;;;;;;5098697;28;24744;-56
2022/01/02 07:27:26;;;;;;;9.13;8.23;;;;;;;;;;5099901;28;24496;-56
2022/01/02 07:29:51;;;;;;;8.82;7.93;;;;;;;;;;5103255;28;24847;-56
2022/01/02 07:32:17;;;;;;;9.60;8.60;;;;;;;;;;5104543;28;24466;-56
2022/01/02 07:34:42;;;;;;;9.57;8.57;;;;;;;;;;5099229;28;24394;-57
2022/01/02 07:37:08;;;;;;;10.05;8.95;;;;;;;;;;5099299;28;24516;-57
2022/01/02 07:39:33;;;;;;;9.43;8.03;;;;;;;;;;5102833;28;24529;-58
2022/01/02 07:41:58;;;;;;;9.05;7.95;;;;;;;;;;5104724;28;24412;-57
2022/01/02 07:44:23;;;;;;;8.85;7.53;;;;;;;;;;5105021;28;24402;-57
2022/01/02 07:46:49;;;;;;;8.60;7.77;;;;;;;;;;5100823;28;24862;-58
2022/01/02 07:49:14;;;;;;;10.00;8.87;;;;;;;;;;5100992;28;24426;-57
2022/01/02 07:51:39;;;;;;;8.52;7.72;;;;;;;;;;5104028;28;24421;-57
2022/01/02 07:54:04;;;;;;;8.77;7.88;;;;;;;;;;5102762;28;25002;-57
2022/01/02 07:56:30;;;;;;;9.53;8.63;;;;;;;;;;5102439;28;24370;-56
2022/01/02 07:58:59;;;;;;;9.10;8.20;;;;;;;;;;5098341;28;24918;-56
2022/01/02 08:01:24;;;;;;;10.30;8.27;;;;;;;;;;5100598;28;25273;-57
2022/01/02 08:03:51;;;;;;;8.90;7.80;;;;;;;;;;5102193;28;24490;-56
2022/01/02 08:06:16;;;;;;;8.40;7.60;;;;;;;;;;5103829;28;24401;-56
2022/01/02 08:08:41;;;;;;;8.30;7.45;;;;;;;;;;5102052;28;24969;-56
2022/01/02 08:11:06;;;;;;;9.30;8.50;;;;;;;;;;5100144;28;24394;-56
2022/01/02 08:13:31;;;;;;;9.05;8.05;;;;;;;;;;5100712;28;24539;-57
2022/01/02 08:15:57;;;;;;;8.95;8.05;;;;;;;;;;5103754;28;24523;-56
2022/01/02 08:18:22;;;;;;;10.27;9.27;;;;;;;;;;5104088;28;24382;-57
2022/01/02 08:20:47;;;;;;;10.10;9.10;;;;;;;;;;5102035;28;25186;-57
2022/01/02 08:23:12;;;;;;;9.93;8.60;;;;;;;;;;5103739;28;24529;-57
2022/01/02 08:25:38;;;;;;;10.50;9.50;;;;;;;;;;5079897;28;24401;-57
2022/01/02 08:28:03;;;;;;;11.37;10.27;;;;;;;;;;5100169;28;24397;-57
2022/01/02 08:30:28;;;;;;;9.57;8.68;;;;;;;;;;5100342;28;24429;-57
2022/01/02 08:32:54;;;;;;;8.70;7.72;;;;;;;;;;5102949;28;24449;-57
2022/01/02 08:35:19;;;;;;;9.82;8.40;;;;;;;;;;5099192;28;24429;-57
2022/01/02 08:37:44;;;;;;;9.33;8.43;;;;;;;;;;5098151;28;24427;-56
2022/01/02 08:40:09;;;;;;;9.88;8.88;;;;;;;;;;5099737;28;24492;-56
2022/01/02 08:42:34;;;;;;;9.20;8.30;;;;;;;;;;5101501;28;24481;-56
2022/01/02 08:45:00;;;;;;;9.70;8.80;;;;;;;;;;5103038;28;24428;-56
2022/01/02 08:47:25;;;;;;;9.90;9.00;;;;;;;;;;5103326;28;24417;-56
2022/01/02 08:49:50;;;;;;;9.95;9.00;;;;;;;;;;5101829;28;24421;-56
2022/01/02 08:52:15;;;;;;;9.05;8.25;;;;;;;;;;5075865;28;24422;-55
2022/01/02 08:54:40;;;;;;;10.20;9.20;;;;;;;;;;5079305;28;24391;-56
2022/01/02 08:57:05;;;;;;;9.20;8.30;;;;;;;;;;5095158;28;25050;-56
2022/01/02 08:59:31;;;;;;;9.10;8.30;;;;;;;;;;5103679;28;24977;-58
2022/01/02 09:01:57;;;;;;;10.50;9.40;;;;;;;;;;5101150;28;24398;-55
2022/01/02 09:04:22;;;;;;;9.40;8.50;;;;;;;;;;5097217;28;24524;-57
2022/01/02 09:06:47;;;;;;;11.40;10.10;;;;;;;;;;5099543;28;24966;-56
2022/01/02 09:09:12;;;;;;;9.93;8.98;;;;;;;;;;5102606;28;24549;-55
2022/01/02 09:11:37;;;;;;;10.30;9.30;;;;;;;;;;5102664;28;24955;-56
2022/01/02 09:14:03;;;;;;;10.70;9.60;;;;;;;;;;5101589;28;24401;-56
2022/01/02 09:16:29;;;;;;;9.63;8.73;;;;;;;;;;5097480;28;24431;-56
2022/01/02 09:18:54;;;;;;;10.40;7.93;;;;;;;;;;5099134;28;25100;-57
2022/01/02 09:21:19;;;;;;;8.50;7.70;;;;;;;;;;5102488;28;24378;-56
2022/01/02 09:23:44;;;;;;;9.10;8.20;;;;;;;;;;5103077;28;24408;-56
2022/01/02 09:26:10;;;;;;;10.10;9.10;;;;;;;;;;5097294;28;24420;-56
2022/01/02 09:28:35;;;;;;;9.40;8.40;;;;;;;;;;5098885;28;24408;-56
2022/01/02 09:31:00;;;;;;;10.20;9.27;;;;;;;;;;5100866;28;24544;-56
2022/01/02 09:33:25;;;;;;;9.07;8.17;;;;;;;;;;5102917;28;24393;-57
2022/01/02 09:35:51;;;;;;;9.57;8.57;;;;;;;;;;5100990;28;25028;-57
2022/01/02 09:38:16;;;;;;;9.70;8.70;;;;;;;;;;5099064;28;25044;-56
2022/01/02 09:40:41;;;;;;;9.43;8.47;;;;;;;;;;5097108;28;25035;-56
2022/01/02 09:43:06;;;;;;;9.20;8.30;;;;;;;;;;5098951;28;24420;-56
2022/01/02 09:45:33;;;;;;;8.35;7.55;;;;;;;;;;5101517;28;24393;-57
2022/01/02 09:47:59;;;;;;;9.00;8.00;;;;;;;;;;5102869;28;24986;-58
2022/01/02 09:50:24;;;;;;;9.32;8.30;;;;;;;;;;5102502;28;24985;-57
2022/01/02 09:52:49;;;;;;;8.50;7.70;;;;;;;;;;5100966;28;24463;-56
2022/01/02 09:55:15;;;;;;;8.80;7.90;;;;;;;;;;5096918;28;24958;-56
2022/01/02 09:57:47;;;;;;;9.73;8.83;;;;;;;;;;5098469;28;24390;-56
2022/01/02 10:00:14;;;;;;;9.30;8.30;;;;;;;;;;5103922;28;24417;-56
2022/01/02 10:02:52;;;;;;;8.80;7.80;;;;;;;;;;5104892;28;24425;-57
2022/01/02 10:05:18;;;;;;;9.80;8.82;;;;;;;;;;5106127;28;24416;-57
2022/01/02 10:07:43;;;;;;;10.68;9.55;;;;;;;;;;5104549;28;24489;-57
2022/01/02 10:10:09;;;;;;;9.27;8.03;;;;;;;;;;5101261;28;24426;-56
2022/01/02 10:12:35;;;;;;;7.83;7.13;;;;;;;;;;5102342;28;24434;-58
2022/01/02 10:15:06;;;;;;;9.95;8.95;;;;;;;;;;5106654;28;24398;-56
2022/01/02 10:17:50;;;;;;;9.80;8.80;;;;;;;;;;5106182;28;24421;-55
2022/01/02 10:20:15;;;;;;;9.30;8.40;;;;;;;;;;5102119;28;24906;-58
2022/01/02 10:23:01;;;;;;;9.02;8.13;;;;;;;;;;5101890;28;24425;-59
2022/01/02 10:25:44;;;;;;;7.55;6.85;;;;;;;;;;5091815;28;24426;-56
2022/01/02 10:28:19;;;;;;;9.02;8.13;;;;;;;;;;5105390;28;24493;-56
2022/01/02 10:30:49;;;;;;;9.37;8.33;;;;;;;;;;5106220;28;24552;-57
2022/01/02 10:33:15;;;;;;;8.55;7.68;;;;;;;;;;5099983;28;24409;-57
2022/01/02 10:35:42;;;;;;;10.60;9.60;;;;;;;;;;5102319;28;24409;-57
2022/01/02 10:38:14;;;;;;;9.68;8.68;;;;;;;;;;5087147;28;24970;-57
2022/01/02 10:40:39;;;;;;;10.80;9.70;;;;;;;;;;5103795;28;24421;-58
2022/01/02 10:43:06;;;;;;;10.90;9.90;;;;;;;;;;5105122;28;24478;-57
2022/01/02 10:45:39;;;;;;;9.20;8.32;;;;;;;;;;5103867;28;24401;-56
2022/01/02 10:48:06;;;;;;;10.50;8.95;;;;;;;;;;5101565;28;24408;-57
2022/01/02 10:50:31;;;;;;;9.52;8.63;;;;;;;;;;5099868;28;24474;-57
2022/01/02 10:52:56;;;;;;;10.63;9.60;;;;;;;;;;5104701;28;24398;-57
2022/01/02 10:55:25;;;;;;;10.97;9.87;;;;;;;;;;5104850;28;24400;-57
2022/01/02 10:57:52;;;;;;;8.13;7.32;;;;;;;;;;5103526;28;24374;-57
2022/01/02 11:00:18;;;;;;;9.25;8.27;;;;;;;;;;5086673;28;24505;-57
2022/01/02 11:02:44;;;;;;;9.10;8.20;;;;;;;;;;5099070;28;24492;-56
2022/01/02 11:05:10;;;;;;;10.40;9.30;;;;;;;;;;5103574;28;24493;-57
2022/01/02 11:07:49;;;;;;;11.38;10.18;;;;;;;;;;5104649;28;24454;-57
2022/01/02 11:10:16;;;;;;;9.75;8.85;;;;;;;;;;5102706;28;25019;-56
2022/01/02 11:12:42;;;;;;;9.10;8.20;;;;;;;;;;5101317;28;25060;-56
2022/01/02 11:15:08;;;;;;;9.23;8.23;;;;;;;;;;5100710;28;25069;-56
2022/01/02 11:17:35;;;;;;;10.82;9.73;;;;;;;;;;5104824;28;24451;-57
2022/01/02 11:20:01;;;;;;;10.88;9.88;;;;;;;;;;5102988;28;24420;-56
2022/01/02 11:22:31;;;;;;;11.00;9.90;;;;;;;;;;5102488;28;24954;-56
2022/01/02 11:25:04;;;;;;;11.13;10.02;;;;;;;;;;5098449;28;24406;-56
2022/01/02 11:27:44;;;;;;;10.85;9.75;;;;;;;;;;5098854;28;24444;-57
2022/01/02 11:30:28;;;;;;;10.60;9.50;;;;;;;;;;5104086;28;24435;-57
2022/01/02 11:33:04;;;;;;;12.02;10.82;;;;;;;;;;5102554;28;24492;-57
2022/01/02 11:35:31;;;;;;;11.00;9.88;;;;;;;;;;5103983;28;24417;-57
2022/01/02 11:38:01;;;;;;;11.40;10.30;;;;;;;;;;5100856;28;24764;-57
2022/01/02 11:40:45;;;;;;;11.52;10.43;;;;;;;;;;5097382;28;24970;-57
2022/01/02 11:43:30;;;;;;;9.80;8.90;;;;;;;;;;5102943;28;24424;-56
2022/01/02 11:46:13;;;;;;;10.90;9.80;;;;;;;;;;5097893;28;24540;-57
2022/01/02 11:48:38;;;;;;;10.50;9.20;;;;;;;;;;5094435;28;25043;-53
2022/01/02 11:51:03;;;;;;;11.93;10.30;;;;;;;;;;5100958;28;24433;-58
2022/01/02 11:53:33;;;;;;;10.77;9.67;;;;;;;;;;5095655;28;24410;-58
2022/01/02 11:55:59;;;;;;;12.15;10.95;;;;;;;;;;5093927;28;24443;-56
2022/01/02 11:58:44;;;;;;;12.40;11.10;;;;;;;;;;5099782;28;24422;-57
2022/01/02 12:01:10;;;;;;;11.93;10.73;;;;;;;;;;5101089;28;24955;-57
2022/01/02 12:03:38;;;;;;;12.45;11.15;;;;;;;;;;5098736;28;24486;-58
2022/01/02 12:06:12;;;;;;;13.15;11.40;;;;;;;;;;5089598;28;25010;-57
2022/01/02 12:08:37;;;;;;;11.27;10.18;;;;;;;;;;5100060;28;24422;-57
2022/01/02 12:11:22;;;;;;;11.80;10.60;;;;;;;;;;5097185;28;24437;-56
2022/01/02 12:14:01;;;;;;;11.00;9.90;;;;;;;;;;5098622;28;24506;-56
2022/01/02 12:16:36;;;;;;;11.68;10.57;;;;;;;;;;5100819;28;24994;-57
2022/01/02 12:19:03;;;;;;;10.63;9.50;;;;;;;;;;5086051;28;24529;-57
2022/01/02 12:21:28;;;;;;;12.83;11.53;;;;;;;;;;5099378;28;24424;-55
2022/01/02 12:23:54;;;;;;;11.87;10.60;;;;;;;;;;5100610;28;24500;-57
2022/01/02 12:26:21;;;;;;;11.25;10.15;;;;;;;;;;5102664;28;24509;-56
2022/01/02 12:28:56;;;;;;;11.40;10.20;;;;;;;;;;5102529;28;24422;-56
2022/01/02 12:31:22;;;;;;;11.85;10.65;;;;;;;;;;5096385;28;24416;-54
2022/01/02 12:33:47;;;;;;;10.83;9.73;;;;;;;;;;5096441;28;24577;-57
2022/01/02 12:36:15;;;;;;;11.95;10.73;;;;;;;;;;5103732;28;24802;-56
2022/01/02 12:39:09;;;;;;;12.27;10.70;;;;;;;;;;5099552;28;24432;-57
2022/01/02 12:41:36;;;;;;;12.40;11.10;;;;;;;;;;5087588;28;24799;-57
2022/01/02 12:44:05;;;;;;;11.65;10.45;;;;;;;;;;5082330;28;24978;-57
2022/01/02 12:46:37;;;;;;;12.38;10.43;;;;;;;;;;5091780;28;24424;-57
2022/01/02 12:49:03;;;;;;;13.65;12.35;;;;;;;;;;5097969;28;24518;-57
2022/01/02 12:51:29;;;;;;;12.50;11.20;;;;;;;;;;5102570;28;25054;-57
2022/01/02 12:54:02;;;;;;;11.65;10.48;;;;;;;;;;5099384;28;24410;-56
2022/01/02 12:56:31;;;;;;;11.55;10.35;;;;;;;;;;5101471;28;24483;-56
2022/01/02 12:59:11;;;;;;;13.00;11.70;;;;;;;;;;5102343;28;24406;-56
2022/01/02 13:01:46;;;;;;;11.80;10.50;;;;;;;;;;5099503;28;24447;-57
2022/01/02 13:04:11;;;;;;;12.32;10.25;;;;;;;;;;5099304;28;24502;-57
2022/01/02 13:06:36;;;;;;;11.27;10.17;;;;;;;;;;5099020;28;24413;-57
2022/01/02 13:09:02;;;;;;;11.65;10.45;;;;;;;;;;5100420;28;24425;-57
2022/01/02 13:11:37;;;;;;;12.32;11.10;;;;;;;;;;5101937;28;24550;-57
2022/01/02 13:14:02;;;;;;;12.57;11.27;;;;;;;;;;5096052;28;25090;-57
2022/01/02 13:16:27;;;;;;;12.87;10.13;;;;;;;;;;5102093;28;24466;-57
2022/01/02 13:18:53;;;;;;;12.10;10.90;;;;;;;;;;5091131;28;24410;-57
2022/01/02 13:21:18;;;;;;;11.82;10.52;;;;;;;;;;5098719;28;24471;-57
2022/01/02 13:23:43;;;;;;;11.70;10.50;;;;;;;;;;5102666;28;24487;-58
2022/01/02 13:26:16;;;;;;;12.67;11.37;;;;;;;;;;5097317;28;24417;-58
2022/01/02 13:28:41;;;;;;;11.00;9.95;;;;;;;;;;5099749;28;24401;-58
2022/01/02 13:31:07;;;;;;;10.93;9.77;;;;;;;;;;5088823;28;24488;-58
2022/01/02 13:33:35;;;;;;;9.80;8.90;;;;;;;;;;5102233;28;24990;-56
2022/01/02 13:36:14;;;;;;;11.47;10.27;;;;;;;;;;5102996;28;24414;-56
2022/01/02 13:38:51;;;;;;;11.52;10.10;;;;;;;;;;5103075;28;24485;-55
2022/01/02 13:41:16;;;;;;;12.23;10.93;;;;;;;;;;5105494;28;24911;-57
2022/01/02 13:43:41;;;;;;;13.83;10.90;;;;;;;;;;5106402;28;24475;-56
2022/01/02 13:46:06;;;;;;;12.23;10.53;;;;;;;;;;5102311;28;24717;-57
2022/01/02 13:48:32;;;;;;;12.35;11.05;;;;;;;;;;5105864;28;24967;-56
2022/01/02 13:50:59;;;;;;;11.63;9.30;;;;;;;;;;5099069;28;24974;-57
2022/01/02 13:53:24;;;;;;;11.18;10.00;;;;;;;;;;5095961;28;24479;-56
2022/01/02 13:55:50;;;;;;;10.90;9.73;;;;;;;;;;5097574;28;24959;-56
2022/01/02 13:58:19;;;;;;;10.60;9.30;;;;;;;;;;5100477;28;24826;-57
2022/01/02 14:00:46;;;;;;;10.50;9.40;;;;;;;;;;5099902;28;24963;-57
2022/01/02 14:03:24;;;;;;;9.75;8.75;;;;;;;;;;5102544;28;24492;-56
2022/01/02 14:05:50;;;;;;;11.48;9.93;;;;;;;;;;5089669;28;24426;-60
2022/01/02 14:08:17;;;;;;;11.02;9.82;;;;;;;;;;5101043;28;25062;-56
2022/01/02 14:10:44;;;;;;;10.95;9.85;;;;;;;;;;5098808;28;24524;-56
2022/01/02 14:13:12;;;;;;;12.55;11.20;;;;;;;;;;5100671;28;24470;-56
2022/01/02 14:15:38;;;;;;;12.98;11.68;;;;;;;;;;5103758;28;24405;-55
2022/01/02 14:18:04;;;;;;;11.93;10.20;;;;;;;;;;5102845;28;24466;-56
2022/01/02 14:20:34;;;;;;;10.65;9.63;;;;;;;;;;5086381;28;24421;-56
2022/01/02 14:22:59;;;;;;;10.98;9.85;;;;;;;;;;5098955;28;24509;-57
2022/01/02 14:25:25;;;;;;;9.48;8.57;;;;;;;;;;5098420;28;24498;-57
2022/01/02 14:27:52;;;;;;;9.68;8.63;;;;;;;;;;5097328;28;24448;-56
2022/01/02 14:30:18;;;;;;;11.32;9.45;;;;;;;;;;5097373;28;24444;-57
2022/01/02 14:32:43;;;;;;;10.30;9.20;;;;;;;;;;5095665;28;24424;-57
2022/01/02 14:35:10;;;;;;;10.07;8.97;;;;;;;;;;5093150;28;24513;-56
2022/01/02 14:37:35;;;;;;;10.50;9.40;;;;;;;;;;5085641;28;24468;-57